createdAt,value
2018-09-29T00:01:49.802Z,102715.77
2018-09-29T00:04:23.738Z,102715.02
2018-09-29T00:06:55.097Z,102711.33
2018-09-29T00:09:25.670Z,102710.83
2018-09-29T00:11:54.984Z,102708.14
2018-09-29T00:14:25.526Z,102710.85
2018-09-29T00:16:54.844Z,102706.04
2018-09-29T00:19:24.203Z,102709.97
2018-09-29T00:21:55.188Z,102702.80
2018-09-29T00:24:26.137Z,102710.81
2018-09-29T00:26:57.605Z,102708.09
2018-09-29T00:29:29.696Z,102716.16
2018-09-29T00:32:04.066Z,102714.81
2018-09-29T00:34:34.506Z,102717.20
2018-09-29T00:37:04.333Z,102720.71
2018-09-29T00:39:35.782Z,102712.41
2018-09-29T00:42:07.995Z,102714.25
2018-09-29T00:44:37.349Z,102707.80
2018-09-29T00:47:06.804Z,102708.66
2018-09-29T00:49:36.330Z,102709.64
2018-09-29T00:52:05.649Z,102710.22
2018-09-29T00:54:34.990Z,102713.42
2018-09-29T00:57:04.531Z,102723.66
2018-09-29T00:59:33.959Z,102726.70
2018-09-29T01:02:03.287Z,102724.71
2018-09-29T01:04:32.614Z,102722.84
2018-09-29T01:07:01.957Z,102723.25
2018-09-29T01:09:31.544Z,102718.28
2018-09-29T01:12:00.982Z,102709.41
2018-09-29T01:14:30.511Z,102724.41
2018-09-29T01:17:00.705Z,102723.16
2018-09-29T01:19:30.302Z,102727.18
2018-09-29T01:21:59.828Z,102724.03
2018-09-29T01:24:29.369Z,102719.45
2018-09-29T01:26:58.872Z,102718.77
2018-09-29T01:29:29.339Z,102719.23
2018-09-29T01:32:01.179Z,102713.58
2018-09-29T01:34:31.398Z,102723.36
2018-09-29T01:37:00.811Z,102720.14
2018-09-29T01:39:30.528Z,102723.00
2018-09-29T01:42:01.089Z,102727.93
2018-09-29T01:44:30.712Z,102726.09
2018-09-29T01:47:00.124Z,102729.02
2018-09-29T01:49:29.635Z,102725.66
2018-09-29T01:51:59.455Z,102718.95
2018-09-29T01:54:28.950Z,102722.41
2018-09-29T01:56:58.574Z,102717.11
2018-09-29T01:59:28.327Z,102724.30
2018-09-29T02:01:57.656Z,102725.82
2018-09-29T02:04:27.469Z,102714.78
2018-09-29T02:06:57.038Z,102710.84
2018-09-29T02:09:26.547Z,102716.25
2018-09-29T02:11:57.623Z,102714.25
2018-09-29T02:14:27.139Z,102714.78
2018-09-29T02:16:56.815Z,102713.59
2018-09-29T02:19:26.455Z,102717.05
2018-09-29T02:21:55.976Z,102710.92
2018-09-29T02:24:25.493Z,102716.55
2018-09-29T02:26:55.409Z,102714.34
2018-09-29T02:29:24.739Z,102711.39
2018-09-29T02:31:55.155Z,102712.09
2018-09-29T02:34:24.525Z,102717.32
2018-09-29T02:36:53.848Z,102723.03
2018-09-29T02:39:23.228Z,102721.34
2018-09-29T02:41:52.613Z,102714.58
2018-09-29T02:44:21.918Z,102714.20
2018-09-29T02:46:51.846Z,102710.04
2018-09-29T02:49:21.526Z,102710.91
2018-09-29T02:51:50.855Z,102712.57
2018-09-29T02:54:20.273Z,102714.20
2018-09-29T02:56:50.763Z,102719.67
2018-09-29T02:59:20.304Z,102722.52
2018-09-29T03:01:49.667Z,102730.31
2018-09-29T03:04:19.022Z,102719.40
2018-09-29T03:06:48.330Z,102717.42
2018-09-29T03:09:17.676Z,102708.28
2018-09-29T03:11:48.671Z,102717.63
2018-09-29T03:14:17.995Z,102725.88
2018-09-29T03:16:47.254Z,102732.70
2018-09-29T03:19:16.584Z,102728.47
2018-09-29T03:21:45.836Z,102722.55
2018-09-29T03:24:15.161Z,102717.32
2018-09-29T03:26:44.506Z,102713.96
2018-09-29T03:29:13.915Z,102710.91
2018-09-29T03:31:43.283Z,102713.33
2018-09-29T03:34:12.675Z,102716.41
2018-09-29T03:36:41.967Z,102728.23
2018-09-29T03:39:12.742Z,102732.44
2018-09-29T03:41:42.106Z,102730.14
2018-09-29T03:44:11.525Z,102718.40
2018-09-29T03:46:40.806Z,102713.25
2018-09-29T03:49:10.195Z,102717.53
2018-09-29T03:51:39.485Z,102727.64
2018-09-29T03:54:09.779Z,102730.37
2018-09-29T03:56:39.315Z,102729.75
2018-09-29T03:59:08.617Z,102723.05
2018-09-29T04:01:37.931Z,102721.04
2018-09-29T04:04:07.217Z,102719.79
2018-09-29T04:06:37.647Z,102714.34
2018-09-29T04:09:08.145Z,102709.33
2018-09-29T04:11:37.445Z,102714.87
2018-09-29T04:14:07.124Z,102724.04
2018-09-29T04:16:36.755Z,102720.70
2018-09-29T04:19:06.325Z,102710.58
2018-09-29T04:21:50.214Z,102706.94
2018-09-29T04:24:19.636Z,102702.11
2018-09-29T04:26:48.958Z,102714.72
2018-09-29T04:29:18.314Z,102716.24
2018-09-29T04:31:47.582Z,102720.11
2018-09-29T04:34:16.881Z,102720.81
2018-09-29T04:36:46.323Z,102733.12
2018-09-29T04:39:16.001Z,102727.84
2018-09-29T04:41:45.675Z,102724.66
2018-09-29T04:44:15.121Z,102728.87
2018-09-29T04:46:44.463Z,102736.22
2018-09-29T04:49:13.934Z,102734.69
2018-09-29T04:51:43.288Z,102732.38
2018-09-29T04:54:12.545Z,102730.16
2018-09-29T04:56:41.847Z,102742.18
2018-09-29T04:59:11.250Z,102749.11
2018-09-29T05:01:40.576Z,102741.41
2018-09-29T05:04:09.859Z,102744.11
2018-09-29T05:06:39.234Z,102751.04
2018-09-29T05:09:09.647Z,102753.55
2018-09-29T05:11:38.945Z,102756.91
2018-09-29T05:14:08.465Z,102753.73
2018-09-29T05:16:37.714Z,102754.50
2018-09-29T05:19:06.986Z,102758.73
2018-09-29T05:21:36.388Z,102760.66
2018-09-29T05:24:05.710Z,102756.03
2018-09-29T05:26:35.001Z,102759.45
2018-09-29T05:29:04.405Z,102755.87
2018-09-29T05:31:33.750Z,102755.36
2018-09-29T05:34:03.018Z,102752.13
2018-09-29T05:36:32.308Z,102747.36
2018-09-29T05:39:01.584Z,102752.37
2018-09-29T05:41:31.018Z,102747.95
2018-09-29T05:44:00.708Z,102745.06
2018-09-29T05:46:30.008Z,102743.62
2018-09-29T05:48:59.361Z,102740.66
2018-09-29T05:51:28.746Z,102748.23
2018-09-29T05:53:58.075Z,102743.02
2018-09-29T05:56:27.399Z,102742.70
2018-09-29T05:58:56.830Z,102750.34
2018-09-29T06:01:26.276Z,102765.03
2018-09-29T06:03:55.633Z,102761.34
2018-09-29T06:06:25.336Z,102762.03
2018-09-29T06:08:55.453Z,102758.41
2018-09-29T06:11:25.268Z,102754.14
2018-09-29T06:13:54.899Z,102759.03
2018-09-29T06:16:24.776Z,102758.95
2018-09-29T06:18:54.707Z,102752.56
2018-09-29T06:21:24.426Z,102757.62
2018-09-29T06:23:54.024Z,102754.95
2018-09-29T06:26:23.385Z,102749.42
2018-09-29T06:28:53.316Z,102739.49
2018-09-29T06:31:22.866Z,102743.29
2018-09-29T06:33:52.722Z,102751.87
2018-09-29T06:36:22.409Z,102755.27
2018-09-29T06:38:52.231Z,102752.77
2018-09-29T06:41:21.988Z,102749.25
2018-09-29T06:43:51.710Z,102746.04
2018-09-29T06:46:21.918Z,102758.93
2018-09-29T06:48:53.019Z,102758.55
2018-09-29T06:51:22.650Z,102761.76
2018-09-29T06:53:52.491Z,102752.16
2018-09-29T06:56:23.826Z,102752.84
2018-09-29T06:58:53.641Z,102755.34
2018-09-29T07:01:23.781Z,102756.86
2018-09-29T07:03:53.591Z,102763.14
2018-09-29T07:06:23.353Z,102767.67
2018-09-29T07:08:53.160Z,102762.11
2018-09-29T07:11:22.932Z,102761.27
2018-09-29T07:13:52.513Z,102750.81
2018-09-29T07:16:22.371Z,102746.00
2018-09-29T07:18:52.036Z,102748.58
2018-09-29T07:21:21.573Z,102746.39
2018-09-29T07:23:51.175Z,102744.55
2018-09-29T07:26:20.782Z,102744.55
2018-09-29T07:28:50.411Z,102747.75
2018-09-29T07:31:21.042Z,102748.70
2018-09-29T07:33:50.918Z,102748.91
2018-09-29T07:36:20.853Z,102757.62
2018-09-29T07:38:51.355Z,102762.56
2018-09-29T07:41:21.037Z,102758.80
2018-09-29T07:43:50.805Z,102751.30
2018-09-29T07:46:20.541Z,102745.67
2018-09-29T07:48:50.386Z,102756.53
2018-09-29T07:51:20.082Z,102761.25
2018-09-29T07:53:49.552Z,102768.55
2018-09-29T07:56:18.881Z,102774.70
2018-09-29T07:58:48.311Z,102772.58
2018-09-29T08:01:17.752Z,102776.30
2018-09-29T08:03:47.145Z,102774.09
2018-09-29T08:06:16.532Z,102774.81
2018-09-29T08:08:46.106Z,102772.20
2018-09-29T08:11:15.538Z,102778.80
2018-09-29T08:13:44.978Z,102778.13
2018-09-29T08:16:14.403Z,102767.92
2018-09-29T08:18:43.871Z,102775.39
2018-09-29T08:21:13.222Z,102777.12
2018-09-29T08:23:42.633Z,102776.39
2018-09-29T08:26:11.954Z,102772.91
2018-09-29T08:28:41.412Z,102770.41
2018-09-29T08:31:10.890Z,102761.31
2018-09-29T08:33:40.238Z,102760.92
2018-09-29T08:36:09.625Z,102756.81
2018-09-29T08:38:39.051Z,102756.23
2018-09-29T08:41:08.398Z,102757.20
2018-09-29T08:43:37.819Z,102751.08
2018-09-29T08:46:07.402Z,102746.67
2018-09-29T08:48:36.841Z,102752.63
2018-09-29T08:51:06.303Z,102751.34
2018-09-29T08:53:37.436Z,102761.08
2018-09-29T08:56:09.853Z,102760.72
2018-09-29T08:58:40.457Z,102759.69
2018-09-29T09:01:12.351Z,102761.06
2018-09-29T09:03:42.108Z,102760.73
2018-09-29T09:06:11.639Z,102764.41
2018-09-29T09:08:41.069Z,102765.13
2018-09-29T09:11:11.505Z,102761.36
2018-09-29T09:13:42.631Z,102754.02
2018-09-29T09:16:12.192Z,102759.75
2018-09-29T09:18:41.844Z,102760.62
2018-09-29T09:21:11.165Z,102762.15
2018-09-29T09:23:41.919Z,102758.34
2018-09-29T09:26:11.324Z,102764.44
2018-09-29T09:28:40.812Z,102762.52
2018-09-29T09:31:10.709Z,102760.77
2018-09-29T09:33:40.041Z,102759.23
2018-09-29T09:36:09.523Z,102764.55
2018-09-29T09:38:38.934Z,102758.08
2018-09-29T09:41:10.016Z,102756.11
2018-09-29T09:43:39.825Z,102756.08
2018-09-29T09:46:09.190Z,102752.16
2018-09-29T09:48:38.581Z,102750.44
2018-09-29T09:51:08.560Z,102752.76
2018-09-29T09:53:37.902Z,102733.34
2018-09-29T09:56:07.733Z,102731.97
2018-09-29T09:58:38.948Z,102730.86
2018-09-29T10:01:13.360Z,102725.35
2018-09-29T10:03:42.694Z,102722.96
2018-09-29T10:06:11.999Z,102719.72
2018-09-29T10:08:41.403Z,102713.06
2018-09-29T10:11:10.786Z,102715.69
2018-09-29T10:13:40.116Z,102714.34
2018-09-29T10:16:10.427Z,102712.18
2018-09-29T10:18:39.830Z,102707.33
2018-09-29T10:21:09.498Z,102699.99
2018-09-29T10:23:38.807Z,102697.37
2018-09-29T10:26:08.171Z,102708.69
2018-09-29T10:28:37.513Z,102697.64
2018-09-29T10:31:06.905Z,102696.91
2018-09-29T10:33:36.356Z,102690.46
2018-09-29T10:36:05.729Z,102690.59
2018-09-29T10:38:35.061Z,102680.13
2018-09-29T10:41:04.523Z,102685.23
2018-09-29T10:43:33.983Z,102678.67
2018-09-29T10:46:03.394Z,102673.11
2018-09-29T10:48:32.811Z,102675.31
2018-09-29T10:51:02.350Z,102666.36
2018-09-29T10:53:31.644Z,102676.73
2018-09-29T10:56:02.155Z,102664.59
2018-09-29T10:58:31.476Z,102647.91
2018-09-29T11:01:00.819Z,102647.28
2018-09-29T11:03:30.684Z,102647.59
2018-09-29T11:06:00.072Z,102645.65
2018-09-29T11:08:29.401Z,102641.70
2018-09-29T11:10:58.762Z,102634.86
2018-09-29T11:13:28.213Z,102634.38
2018-09-29T11:15:57.845Z,102636.61
2018-09-29T11:18:27.341Z,102638.11
2018-09-29T11:20:57.050Z,102635.02
2018-09-29T11:23:26.603Z,102623.15
2018-09-29T11:25:56.387Z,102624.64
2018-09-29T11:28:25.912Z,102625.04
2018-09-29T11:30:55.554Z,102631.73
2018-09-29T11:33:25.123Z,102626.55
2018-09-29T11:35:54.989Z,102615.22
2018-09-29T11:38:25.075Z,102608.12
2018-09-29T11:40:55.273Z,102606.79
2018-09-29T11:43:24.785Z,102614.30
2018-09-29T11:45:54.408Z,102604.02
2018-09-29T11:48:24.435Z,102604.99
2018-09-29T11:50:53.974Z,102600.59
2018-09-29T11:53:24.664Z,102592.98
2018-09-29T11:55:54.271Z,102586.06
2018-09-29T11:58:23.772Z,102589.05
2018-09-29T12:00:53.503Z,102584.27
2018-09-29T12:03:23.019Z,102578.56
2018-09-29T12:05:52.612Z,102581.55
2018-09-29T12:08:22.057Z,102576.50
2018-09-29T12:10:51.821Z,102568.46
2018-09-29T12:13:22.292Z,102566.05
2018-09-29T12:15:52.676Z,102568.59
2018-09-29T12:18:22.078Z,102566.50
2018-09-29T12:20:52.583Z,102565.37
2018-09-29T12:23:22.037Z,102564.88
2018-09-29T12:25:51.644Z,102561.09
2018-09-29T12:28:21.602Z,102559.03
2018-09-29T12:30:52.423Z,102563.51
2018-09-29T12:33:23.491Z,102553.57
2018-09-29T12:35:54.073Z,102556.99
2018-09-29T12:38:23.566Z,102549.45
2018-09-29T12:40:53.464Z,102540.70
2018-09-29T12:43:23.124Z,102535.91
2018-09-29T12:45:52.774Z,102531.45
2018-09-29T12:48:22.433Z,102529.22
2018-09-29T12:50:53.496Z,102523.22
2018-09-29T12:53:22.811Z,102518.86
2018-09-29T12:55:52.506Z,102514.50
2018-09-29T12:58:21.964Z,102501.58
2018-09-29T13:00:51.832Z,102497.66
2018-09-29T13:03:21.410Z,102488.02
2018-09-29T13:05:52.138Z,102485.80
2018-09-29T13:08:22.522Z,102475.72
2018-09-29T13:10:53.299Z,102472.64
2018-09-29T13:13:23.043Z,102479.47
2018-09-29T13:15:52.557Z,102468.56
2018-09-29T13:18:22.075Z,102471.63
2018-09-29T13:20:51.594Z,102470.03
2018-09-29T13:23:21.155Z,102468.96
2018-09-29T13:25:51.793Z,102465.20
2018-09-29T13:28:21.249Z,102464.37
2018-09-29T13:30:50.827Z,102461.29
2018-09-29T13:33:20.872Z,102459.80
2018-09-29T13:35:50.671Z,102462.08
2018-09-29T13:38:20.431Z,102462.16
2018-09-29T13:40:49.847Z,102460.60
2018-09-29T13:43:19.685Z,102451.17
2018-09-29T13:45:49.506Z,102438.27
2018-09-29T13:48:19.028Z,102443.14
2018-09-29T13:50:48.797Z,102451.17
2018-09-29T13:53:18.604Z,102450.63
2018-09-29T13:55:48.466Z,102448.51
2018-09-29T13:58:17.811Z,102444.84
2018-09-29T14:00:47.314Z,102451.67
2018-09-29T14:03:16.747Z,102442.64
2018-09-29T14:05:46.219Z,102440.08
2018-09-29T14:08:15.782Z,102441.40
2018-09-29T14:10:45.392Z,102437.27
2018-09-29T14:13:14.796Z,102431.72
2018-09-29T14:15:44.214Z,102426.48
2018-09-29T14:18:14.198Z,102425.70
2018-09-29T14:20:43.585Z,102421.56
2018-09-29T14:23:13.020Z,102415.84
2018-09-29T14:25:42.367Z,102411.97
2018-09-29T14:28:11.720Z,102406.14
2018-09-29T14:30:41.074Z,102401.13
2018-09-29T14:33:10.539Z,102400.44
2018-09-29T14:35:40.469Z,102396.34
2018-09-29T14:38:10.086Z,102395.60
2018-09-29T14:40:39.847Z,102392.08
2018-09-29T14:43:09.387Z,102388.07
2018-09-29T14:45:39.472Z,102382.56
2018-09-29T14:48:08.970Z,102381.09
2018-09-29T14:50:38.669Z,102382.39
2018-09-29T14:53:09.116Z,102380.05
2018-09-29T14:55:39.612Z,102373.23
2018-09-29T14:58:09.778Z,102371.48
2018-09-29T15:00:39.251Z,102360.69
2018-09-29T15:03:08.818Z,102360.34
2018-09-29T15:05:38.283Z,102361.98
2018-09-29T15:08:07.668Z,102359.61
2018-09-29T15:10:37.123Z,102364.02
2018-09-29T15:13:06.577Z,102347.88
2018-09-29T15:15:35.966Z,102356.36
2018-09-29T15:18:05.461Z,102352.40
2018-09-29T15:20:34.886Z,102346.94
2018-09-29T15:23:04.328Z,102341.82
2018-09-29T15:25:34.145Z,102338.92
2018-09-29T15:28:03.570Z,102339.97
2018-09-29T15:30:32.983Z,102337.17
2018-09-29T15:33:02.362Z,102326.66
2018-09-29T15:35:31.858Z,102330.14
2018-09-29T15:38:01.431Z,102330.54
2018-09-29T15:40:31.758Z,102323.60
2018-09-29T15:43:01.254Z,102325.20
2018-09-29T15:45:30.671Z,102324.92
2018-09-29T15:48:00.215Z,102317.39
2018-09-29T15:50:29.619Z,102324.56
2018-09-29T15:52:59.054Z,102325.20
2018-09-29T15:55:28.768Z,102319.11
2018-09-29T15:57:58.449Z,102326.64
2018-09-29T16:00:27.955Z,102328.02
2018-09-29T16:02:58.760Z,102318.94
2018-09-29T16:05:28.079Z,102318.42
2018-09-29T16:07:57.672Z,102314.54
2018-09-29T16:10:27.163Z,102315.22
2018-09-29T16:12:56.659Z,102318.06
2018-09-29T16:15:25.982Z,102317.11
2018-09-29T16:17:57.684Z,102321.42
2018-09-29T16:20:27.308Z,102316.44
2018-09-29T16:22:56.854Z,102317.70
2018-09-29T16:25:26.391Z,102320.08
2018-09-29T16:27:55.890Z,102314.86
2018-09-29T16:30:25.292Z,102308.18
2018-09-29T16:32:55.010Z,102307.47
2018-09-29T16:35:24.499Z,102305.34
2018-09-29T16:37:53.907Z,102301.41
2018-09-29T16:40:23.317Z,102301.43
2018-09-29T16:42:52.899Z,102309.23
2018-09-29T16:45:22.360Z,102302.75
2018-09-29T16:47:51.910Z,102297.34
2018-09-29T16:50:21.269Z,102307.77
2018-09-29T16:52:50.633Z,102306.28
2018-09-29T16:55:20.213Z,102304.22
2018-09-29T16:57:49.584Z,102310.05
2018-09-29T17:00:23.421Z,102308.73
2018-09-29T17:02:52.845Z,102305.77
2018-09-29T17:05:22.259Z,102301.45
2018-09-29T17:07:51.956Z,102305.19
2018-09-29T17:10:21.261Z,102309.36
2018-09-29T17:12:50.664Z,102308.34
2018-09-29T17:15:23.438Z,102303.62
2018-09-29T17:17:52.732Z,102301.23
2018-09-29T17:20:22.148Z,102295.27
2018-09-29T17:22:51.643Z,102299.66
2018-09-29T17:25:20.948Z,102296.47
2018-09-29T17:27:50.286Z,102286.99
2018-09-29T17:30:19.793Z,102289.54
2018-09-29T17:32:49.276Z,102295.45
2018-09-29T17:35:18.648Z,102297.02
2018-09-29T17:37:48.103Z,102286.81
2018-09-29T17:40:17.731Z,102286.82
2018-09-29T17:42:47.108Z,102288.19
2018-09-29T17:45:16.517Z,102296.92
2018-09-29T17:47:46.632Z,102300.63
2018-09-29T17:50:16.212Z,102299.73
2018-09-29T17:52:46.876Z,102289.05
2018-09-29T17:55:16.806Z,102284.11
2018-09-29T17:57:47.172Z,102287.73
2018-09-29T18:00:17.601Z,102273.26
2018-09-29T18:02:47.672Z,102274.78
2018-09-29T18:05:17.035Z,102281.64
2018-09-29T18:07:46.530Z,102280.56
2018-09-29T18:10:16.951Z,102278.66
2018-09-29T18:12:46.401Z,102277.99
2018-09-29T18:15:15.859Z,102288.34
2018-09-29T18:17:45.192Z,102284.59
2018-09-29T18:20:14.614Z,102280.24
2018-09-29T18:22:44.176Z,102289.21
2018-09-29T18:25:13.567Z,102283.70
2018-09-29T18:27:42.943Z,102275.66
2018-09-29T18:30:12.330Z,102282.31
2018-09-29T18:32:42.462Z,102287.28
2018-09-29T18:35:11.937Z,102277.36
2018-09-29T18:37:41.360Z,102282.67
2018-09-29T18:40:10.952Z,102277.37
2018-09-29T18:42:40.408Z,102274.45
2018-09-29T18:45:10.160Z,102261.19
2018-09-29T18:47:39.652Z,102261.37
2018-09-29T18:50:09.230Z,102262.73
2018-09-29T18:52:38.679Z,102256.56
2018-09-29T18:55:08.132Z,102257.15
2018-09-29T18:57:38.515Z,102262.70
2018-09-29T19:00:08.507Z,102258.13
2018-09-29T19:02:38.216Z,102252.98
2018-09-29T19:05:07.760Z,102258.18
2018-09-29T19:07:37.740Z,102257.59
2018-09-29T19:10:07.496Z,102249.62
2018-09-29T19:12:39.253Z,102248.81
2018-09-29T19:15:08.712Z,102251.90
2018-09-29T19:17:38.835Z,102246.83
2018-09-29T19:20:08.651Z,102240.91
2018-09-29T19:22:38.232Z,102242.12
2018-09-29T19:25:08.093Z,102243.84
2018-09-29T19:27:38.344Z,102241.48
2018-09-29T19:30:07.935Z,102241.52
2018-09-29T19:32:37.555Z,102234.84
2018-09-29T19:35:07.422Z,102230.95
2018-09-29T19:37:36.993Z,102230.16
2018-09-29T19:40:07.294Z,102228.38
2018-09-29T19:42:37.732Z,102232.89
2018-09-29T19:45:07.295Z,102239.33
2018-09-29T19:47:36.885Z,102233.67
2018-09-29T19:50:07.226Z,102235.27
2018-09-29T19:52:37.037Z,102238.81
2018-09-29T19:55:07.401Z,102230.62
2018-09-29T19:57:37.135Z,102229.36
2018-09-29T20:00:07.409Z,102226.97
2018-09-29T20:02:37.008Z,102219.94
2018-09-29T20:05:07.086Z,102230.11
2018-09-29T20:07:37.043Z,102225.36
2018-09-29T20:10:06.599Z,102224.95
2018-09-29T20:12:36.095Z,102227.44
2018-09-29T20:15:05.800Z,102219.05
2018-09-29T20:17:35.479Z,102215.44
2018-09-29T20:20:05.101Z,102220.56
2018-09-29T20:22:34.813Z,102206.24
2018-09-29T20:25:04.538Z,102208.83
2018-09-29T20:27:34.834Z,102195.00
2018-09-29T20:30:04.326Z,102197.21
2018-09-29T20:32:34.272Z,102192.47
2018-09-29T20:35:04.305Z,102191.88
2018-09-29T20:37:33.937Z,102183.98
2018-09-29T20:40:03.420Z,102186.78
2018-09-29T20:42:33.043Z,102184.33
2018-09-29T20:45:03.784Z,102185.58
2018-09-29T20:47:35.314Z,102179.43
2018-09-29T20:50:07.820Z,102180.63
2018-09-29T20:52:37.852Z,102181.41
2018-09-29T20:55:07.800Z,102177.45
2018-09-29T20:57:37.933Z,102174.30
2018-09-29T21:00:07.813Z,102163.95
2018-09-29T21:02:37.711Z,102175.11
2018-09-29T21:05:07.129Z,102168.09
2018-09-29T21:07:37.607Z,102164.03
2018-09-29T21:10:07.081Z,102170.50
2018-09-29T21:12:37.166Z,102162.42
2018-09-29T21:15:09.130Z,102160.30
2018-09-29T21:17:38.578Z,102158.63
2018-09-29T21:20:08.193Z,102157.87
2018-09-29T21:22:37.663Z,102165.25
2018-09-29T21:25:07.092Z,102160.83
2018-09-29T21:27:36.555Z,102164.16
2018-09-29T21:30:06.374Z,102154.19
2018-09-29T21:32:35.792Z,102157.05
2018-09-29T21:35:05.457Z,102148.06
2018-09-29T21:37:35.224Z,102140.40
2018-09-29T21:40:05.370Z,102139.95
2018-09-29T21:42:35.020Z,102137.23
2018-09-29T21:45:04.873Z,102129.31
2018-09-29T21:47:34.264Z,102125.41
2018-09-29T21:50:03.826Z,102119.38
2018-09-29T21:52:33.321Z,102117.91
2018-09-29T21:55:02.811Z,102114.61
2018-09-29T21:57:32.351Z,102115.73
2018-09-29T22:00:02.250Z,102103.64
2018-09-29T22:02:32.289Z,102098.99
2018-09-29T22:05:01.737Z,102103.17
2018-09-29T22:07:31.373Z,102098.13
2018-09-29T22:10:00.912Z,102101.20
2018-09-29T22:12:30.391Z,102102.59
2018-09-29T22:14:59.895Z,102087.22
2018-09-29T22:17:29.562Z,102091.16
2018-09-29T22:19:58.977Z,102088.20
2018-09-29T22:22:29.575Z,102089.92
2018-09-29T22:24:58.949Z,102080.45
2018-09-29T22:27:28.279Z,102074.78
2018-09-29T22:29:57.755Z,102072.59
2018-09-29T22:32:30.472Z,102070.77
2018-09-29T22:35:00.081Z,102061.55
2018-09-29T22:37:29.642Z,102055.04
2018-09-29T22:39:59.049Z,102050.37
2018-09-29T22:42:28.632Z,102054.31
2018-09-29T22:44:58.121Z,102051.00
2018-09-29T22:47:27.520Z,102049.98
2018-09-29T22:49:56.971Z,102046.93
2018-09-29T22:52:26.337Z,102043.34
2018-09-29T22:54:56.009Z,102032.03
2018-09-29T22:57:25.951Z,102038.52
2018-09-29T22:59:55.508Z,102024.38
2018-09-29T23:02:24.907Z,102022.26
2018-09-29T23:04:54.449Z,102025.33
2018-09-29T23:07:23.915Z,102028.09
2018-09-29T23:09:53.302Z,102020.50
2018-09-29T23:12:22.654Z,102021.84
2018-09-29T23:14:51.991Z,102014.23
2018-09-29T23:17:21.371Z,102017.33
2018-09-29T23:19:50.777Z,102009.82
2018-09-29T23:22:20.210Z,102008.98
2018-09-29T23:24:49.676Z,102000.99
2018-09-29T23:27:19.527Z,102002.72
2018-09-29T23:29:48.936Z,101998.78
2018-09-29T23:32:18.387Z,101992.52
2018-09-29T23:34:47.807Z,101992.41
2018-09-29T23:37:17.267Z,101992.77
2018-09-29T23:39:46.776Z,101993.50
2018-09-29T23:42:16.253Z,101991.55
2018-09-29T23:44:45.782Z,101994.34
2018-09-29T23:47:15.182Z,101998.63
2018-09-29T23:49:45.039Z,101992.97
2018-09-29T23:52:15.515Z,101990.78
2018-09-29T23:54:44.897Z,101989.68
2018-09-29T23:57:14.222Z,101978.64
2018-09-29T23:59:43.541Z,101984.17
